• Join FlightAware (Why Join?)
  • Login
  • US Flag 
02:28AM EDT


 

Airport Tracker/Info


-or-


 

Live Flight TrackerFlight Track Log ✈ BAW2276 ✈ 06-May-2013 ✈ KLAS - EGKK / LGW

Flight Track Log - Related Links

Times and Time Zones

All times are in EDT time to prevent confusion due to time zone crossing. See the BAW2276 flight status page for this flight to view local times or setup timezone preferences in your user account.

Time Position Orientation Groundspeed Altitude Reporting Facility
EDT Latitude Longitude Course Direction KTS MPH feet Rate Location/Type
07:23PM 36.0770 -115.1770 270° West 191 220 3,100  Level FlightAware
07:24PM 36.0770 -115.2110 270° West 202 232 3,900 1,080 Climbing FlightAware
07:24PM 36.0760 -115.2390 267° West 224 258 4,100 840 Climbing FlightAware
07:25PM 36.0840 -115.2780 284° West 257 296 4,700 1,320 Climbing FlightAware
07:25PM 36.0940 -115.2880 321° Northwest 267 307 5,000 1,440 Climbing FlightAware
07:25PM 36.1130 -115.2960 341° North 282 325 5,300 2,220 Climbing FlightAware
07:26PM 36.1510 -115.2880 10° North 284 327 6,700 2,520 Climbing FlightAware
07:26PM 36.1640 -115.2730 43° Northeast 287 330 7,200 1,800 Climbing FlightAware
07:26PM 36.1790 -115.2340 65° Northeast 295 339 7,900 1,920 Climbing FlightAware
07:27PM 36.1810 -115.1830 87° East 295 339 9,000 2,160 Climbing FlightAware
07:27PM 36.1810 -115.1420 90° East 299 344 9,900 2,220 Climbing FlightAware
07:28PM 36.1830 -115.0630 88° East 302 348 11,600 2,100 Climbing FlightAware
07:29PM 36.1910 -114.9940 82° East 315 362 12,900 2,100 Climbing FlightAware
07:29PM 36.2050 -114.9160 77° East 324 373 14,600 2,100 Climbing FlightAware
07:30PM 36.2140 -114.8410 82° East 333 383 15,900 1,920 Climbing FlightAware
07:31PM 36.2150 -114.7530 89° East 342 394 17,400 1,800 Climbing FlightAware
07:31PM 36.2120 -114.6720 93° East 352 405 18,500 1,260 Climbing FlightAware
07:32PM 36.2080 -114.5880 93° East 383 441 19,100 1,320 Climbing FlightAware
07:33PM 36.2040 -114.4910 93° East 392 451 20,400 1,620 Climbing FlightAware
07:33PM 36.2030 -114.4020 91° East 409 471 21,400 1,680 Climbing FlightAware
07:34PM 36.2020 -114.2900 91° East 421 484 22,800 1,740 Climbing FlightAware
07:35PM 36.2030 -114.1940 89° East 429 494 23,900 1,560 Climbing FlightAware
07:36PM 36.2030 -114.0920 90° East 441 507 24,900 1,500 Climbing FlightAware
07:36PM 36.2020 -113.9920 91° East 446 513 25,900 1,260 Climbing FlightAware
07:37PM 36.2020 -113.8640 90° East 462 532 26,800 1,020 Climbing FlightAware
07:38PM 36.2020 -113.7590 90° East 471 542 27,500 960 Climbing FlightAware
07:38PM 36.2030 -113.6350 89° East 482 555 28,200 960 Climbing FlightAware
07:39PM 36.2110 -113.5250 85° East 491 565 28,900 720 Climbing FlightAware
07:40PM 36.2490 -113.4170 66° East 508 585 29,200 300 Climbing FlightAware
07:41PM 36.3010 -113.3070 60° Northeast 528 608 29,400 420 Climbing FlightAware
07:41PM 36.3520 -113.1980 60° Northeast 544 626 29,800 660 Climbing FlightAware
07:42PM 36.4030 -113.0890 60° Northeast 555 639 30,300 720 Climbing FlightAware
07:43PM 36.4630 -112.9610 60° Northeast 564 649 30,900 480 Climbing FlightAware
07:43PM 36.5130 -112.8540 60° Northeast 567 652 31,000 60 Climbing FlightAware
07:44PM 36.5760 -112.7280 58° Northeast 566 651 31,000  Level FlightAware
07:45PM 36.6350 -112.6180 56° Northeast 565 650 31,000  Level FlightAware
07:45PM 36.6990 -112.4950 57° Northeast 563 648 31,000  Level FlightAware
07:46PM 36.7560 -112.3850 57° Northeast 561 646 31,000  Level FlightAware
07:47PM 36.8030 -112.3060 53° Northeast 553 636 31,000  Level FlightAware
07:47PM 36.8750 -112.2050 48° Northeast 552 635 31,000  Level FlightAware
07:48PM 36.9330 -112.1250 48° Northeast 552 635 31,000  Level FlightAware
07:49PM 36.9910 -112.0440 48° Northeast 552 635 31,000  Level FlightAware
07:50PM 37.0640 -111.9430 48° Northeast 552 635 31,000  Level FlightAware
07:50PM 37.1220 -111.8620 48° Northeast 552 635 31,000  Level FlightAware
07:51PM 37.1800 -111.7810 48° Northeast 552 635 31,000  Level FlightAware
07:52PM 37.2380 -111.7000 48° Northeast 552 635 31,000  Level FlightAware
07:52PM 37.2960 -111.6190 48° Northeast 552 635 31,000  Level FlightAware
07:53PM 37.3690 -111.5170 48° Northeast 552 635 31,000  Level FlightAware
07:54PM 37.4270 -111.4360 48° Northeast 552 635 31,000  Level FlightAware
07:54PM 37.4850 -111.3550 48° Northeast 552 635 31,000  Level FlightAware
07:55PM 37.5430 -111.2740 48° Northeast 552 635 31,000  Level FlightAware
07:56PM 37.6010 -111.1920 48° Northeast 552 635 31,000  Level FlightAware
07:57PM 37.6740 -111.0900 48° Northeast 552 635 31,000 1,440 Level FlightAware
07:58PM 37.7311 -110.5150 38° Northeast 504 580 35,000 960 Climbing Denver Center
08:01PM 37.8828 -110.1994 59° Northeast 505 581 35,000  Level Denver Center
08:02PM 38.2001 -110.5680 38° Northeast  Level Estimated
08:02PM 37.9636 -110.0306 59° Northeast 503 579 35,000  Level Denver Center
08:03PM 38.3075 -110.4602 38° Northeast  Level Estimated
08:03PM 38.0214 -109.9094 59° Northeast 503 579 35,000  Level Denver Center
08:04PM 38.4148 -110.3521 38° Northeast  Level Estimated
08:04PM 38.0967 -109.7472 59° Northeast 500 575 35,000  Level Denver Center
08:06PM 38.2553 -109.4119 59° Northeast 495 570 35,000  Level Denver Center
08:12PM 38.6870 -108.4720 59° Northeast 487 560 35,000  Level FlightAware
08:13PM 38.7370 -108.3620 60° Northeast 485 558 35,000  Level FlightAware
08:14PM 38.8320 -108.1500 60° Northeast 484 557 35,000  Level FlightAware
08:15PM 38.8880 -108.0250 60° Northeast 486 559 35,000  Level FlightAware
08:16PM 38.9330 -107.9240 60° Northeast 486 559 35,000  Level FlightAware
08:17PM 39.0290 -107.7070 60° Northeast 479 551 35,000  Level FlightAware
08:18PM 39.0910 -107.5680 60° Northeast 478 550 35,000  Level FlightAware
08:19PM 39.1400 -107.4540 61° Northeast 479 551 35,000  Level FlightAware
08:19PM 39.1777 -107.3690 60° Northeast 480 552 35,000  Level FlightAware ADS-B
08:20PM 39.2105 -107.2940 61° Northeast 480 552 35,000  Level FlightAware ADS-B
08:20PM 39.2439 -107.2170 61° Northeast 479 551 35,000  Level FlightAware ADS-B
08:21PM 39.2764 -107.1430 60° Northeast 479 551 35,000  Level FlightAware ADS-B
08:21PM 39.3108 -107.0630 61° Northeast 480 552 35,000  Level FlightAware ADS-B
08:22PM 39.3451 -106.9840 61° Northeast 480 552 35,000  Level FlightAware ADS-B
08:22PM 39.3792 -106.9050 61° Northeast 481 554 35,000  Level FlightAware ADS-B
08:23PM 39.4118 -106.8290 61° Northeast 481 554 35,000  Level FlightAware ADS-B
08:23PM 39.4453 -106.7510 61° Northeast 481 554 35,000  Level FlightAware ADS-B
08:24PM 39.4776 -106.6750 61° Northeast 481 554 35,000  Level FlightAware ADS-B
08:24PM 39.5105 -106.5980 61° Northeast 481 554 35,000  Level FlightAware ADS-B
08:25PM 39.5426 -106.5230 61° Northeast 481 554 35,000  Level FlightAware ADS-B
08:25PM 39.5752 -106.4470 61° Northeast 480 552 35,000  Level FlightAware ADS-B
08:26PM 39.6075 -106.3700 61° Northeast 481 554 35,000  Level FlightAware ADS-B
08:26PM 39.6398 -106.2940 61° Northeast 482 555 35,000  Level FlightAware ADS-B
08:27PM 39.6722 -106.2170 61° Northeast 484 557 35,000  Level FlightAware ADS-B
08:27PM 39.7047 -106.1400 61° Northeast 485 558 35,000  Level FlightAware ADS-B
08:28PM 39.7373 -106.0620 61° Northeast 485 558 35,000  Level FlightAware ADS-B
08:29PM 39.7707 -105.9820 61° Northeast 486 559 35,000  Level FlightAware ADS-B
08:29PM 39.8037 -105.9030 61° Northeast 489 563 35,000  Level FlightAware ADS-B
08:30PM 39.8367 -105.8240 61° Northeast 490 564 35,000  Level FlightAware ADS-B
08:30PM 39.8692 -105.7460 61° Northeast 492 566 35,000  Level FlightAware ADS-B
08:31PM 39.9024 -105.6660 62° Northeast 493 567 35,000  Level FlightAware ADS-B
08:31PM 39.9372 -105.5810 62° Northeast 495 570 35,000  Level FlightAware ADS-B
08:32PM 39.9771 -105.4850 62° Northeast 497 572 35,000  Level FlightAware ADS-B
08:32PM 40.0111 -105.4020 62° Northeast 498 573 35,000  Level FlightAware ADS-B
08:33PM 40.0460 -105.3160 62° Northeast 499 574 35,000  Level FlightAware
08:33PM 40.0640 -105.2720 62° Northeast 498 573 35,000  Level FlightAware ADS-B
08:34PM 40.0987 -105.1870 62° Northeast 500 575 35,000  Level FlightAware ADS-B
08:34PM 40.1351 -105.0980 62° Northeast 500 575 35,000  Level FlightAware ADS-B
08:35PM 40.1676 -105.0170 62° Northeast 498 573 35,000  Level FlightAware ADS-B
08:35PM 40.2003 -104.9370 62° Northeast 497 572 35,000  Level FlightAware ADS-B
08:36PM 40.2326 -104.8570 62° Northeast 497 572 35,000  Level FlightAware ADS-B
08:36PM 40.2679 -104.7690 62° Northeast 497 572 35,000  Level FlightAware ADS-B
08:37PM 40.2999 -104.6890 62° Northeast 498 573 35,000  Level FlightAware ADS-B
08:37PM 40.3324 -104.6080 62° Northeast 497 572 35,000  Level FlightAware ADS-B
08:38PM 40.3659 -104.5240 62° Northeast 497 572 35,000  Level FlightAware ADS-B
08:38PM 40.3988 -104.4410 62° Northeast 497 572 35,000  Level FlightAware ADS-B
08:39PM 40.4312 -104.3590 63° Northeast 497 572 35,000  Level FlightAware ADS-B
08:39PM 40.4631 -104.2790 62° Northeast 497 572 35,000  Level FlightAware ADS-B
08:40PM 40.4962 -104.1950 63° Northeast 497 572 35,000  Level FlightAware ADS-B
08:40PM 40.5292 -104.1110 63° Northeast 498 573 35,000  Level FlightAware ADS-B
08:41PM 40.5612 -104.0290 63° Northeast 498 573 35,000  Level FlightAware ADS-B
08:41PM 40.5929 -103.9480 63° Northeast 500 575 35,000  Level FlightAware ADS-B
08:42PM 40.6246 -103.8670 63° Northeast 501 577 35,000  Level FlightAware ADS-B
08:42PM 40.6564 -103.7850 63° Northeast 501 577 35,000  Level FlightAware ADS-B
08:43PM 40.6895 -103.7000 63° Northeast 503 579 35,000  Level FlightAware ADS-B
08:44PM 40.7365 -103.5780 63° Northeast 500 575 35,000  Level FlightAware ADS-B
08:44PM 40.7681 -103.4960 63° Northeast 500 575 35,000  Level FlightAware ADS-B
08:45PM 40.8000 -103.4130 63° Northeast 499 574 35,000  Level FlightAware ADS-B
08:45PM 40.8344 -103.3230 63° Northeast 498 573 35,000  Level FlightAware ADS-B
08:46PM 40.8655 -103.2420 63° Northeast 498 573 35,000  Level FlightAware ADS-B
08:46PM 40.9008 -103.1490 63° Northeast 496 571 35,000  Level FlightAware ADS-B
08:47PM 40.9322 -103.0660 63° Northeast 496 571 35,000  Level FlightAware ADS-B
08:47PM 40.9635 -102.9840 63° Northeast 495 570 35,000  Level FlightAware ADS-B
08:48PM 40.9961 -102.8980 63° Northeast 496 571 35,000  Level FlightAware ADS-B
08:48PM 41.0271 -102.8150 64° Northeast 495 570 35,000  Level FlightAware ADS-B
08:49PM 41.0578 -102.7330 64° Northeast 496 571 35,000  Level FlightAware ADS-B
08:50PM 41.1086 -102.5980 63° Northeast 496 571 35,000  Level FlightAware ADS-B
08:50PM 41.1399 -102.5140 64° Northeast 498 573 35,000  Level FlightAware ADS-B
08:51PM 41.1707 -102.4300 64° Northeast 498 573 35,000  Level FlightAware ADS-B
08:51PM 41.2020 -102.3460 64° Northeast 499 574 35,000  Level FlightAware ADS-B
08:52PM 41.2345 -102.2580 64° Northeast 500 575 35,000  Level FlightAware ADS-B
08:52PM 41.2659 -102.1730 64° Northeast 500 575 35,000  Level FlightAware ADS-B
08:53PM 41.3023 -102.0730 64° Northeast 500 575 35,000  Level FlightAware ADS-B
08:53PM 41.3334 -101.9880 64° Northeast 500 575 35,000  Level FlightAware ADS-B
08:54PM 41.3657 -101.9000 64° Northeast 501 577 35,000  Level FlightAware ADS-B
08:54PM 41.3958 -101.8170 64° Northeast 500 575 35,000  Level FlightAware ADS-B
08:55PM 41.4262 -101.7330 64° Northeast 500 575 35,000  Level FlightAware ADS-B
08:55PM 41.4575 -101.6470 64° Northeast 501 577 35,000  Level FlightAware ADS-B
08:56PM 41.4860 -101.5680 64° Northeast 502 578 35,000  Level FlightAware
08:57PM 41.5330 -101.4380 64° Northeast 504 580 35,000  Level FlightAware
08:58PM 41.5760 -101.3190 64° Northeast 504 580 35,000  Level FlightAware
08:58PM 41.6110 -101.2230 64° Northeast 504 580 35,000  Level FlightAware
08:59PM 41.6460 -101.1280 64° Northeast 504 580 35,000  Level FlightAware
09:00PM 41.6810 -101.0330 64° Northeast 504 580 35,000  Level FlightAware
09:00PM 41.7150 -100.9370 65° Northeast 504 580 35,000  Level FlightAware
09:01PM 41.7500 -100.8420 64° Northeast 504 580 35,000  Level FlightAware
09:02PM 41.7930 -100.7220 64° Northeast 504 580 35,000  Level FlightAware
09:02PM 41.8280 -100.6270 64° Northeast 504 580 35,000  Level FlightAware
09:03PM 41.8630 -100.5310 64° Northeast 504 580 35,000  Level FlightAware
09:04PM 41.8980 -100.4350 64° Northeast 504 580 35,000  Level FlightAware
09:04PM 41.9320 -100.3390 65° Northeast 504 580 35,000  Level FlightAware
09:05PM 41.9760 -100.2200 64° Northeast 504 580 35,000  Level FlightAware
09:06PM 42.0110 -100.1240 64° Northeast 504 580 35,000  Level FlightAware
09:06PM 42.0969 -99.8172 64° Northeast 516 594 35,000  Level Minneapolis Center
09:07PM 42.1556 -99.6403 66° East 516 594 35,000  Level Minneapolis Center
09:08PM 42.1908 -99.5331 66° East 517 595 35,000  Level Denver Center
09:09PM 42.2506 -99.3561 65° Northeast 516 594 35,000  Level Denver Center
09:09PM 42.2731 -99.2867 66° East 515 593 35,000  Level Minneapolis Center
09:10PM 42.3439 -99.0731 66° East 516 594 35,000  Level Minneapolis Center
09:11PM 42.4022 -98.8950 66° East 516 594 35,000  Level Minneapolis Center
09:13PM 42.5289 -98.5947 60° Northeast 511 588 35,000  Level Minneapolis Center
09:15PM 42.6248 -98.4420 49° Northeast  Level FlightAware Approximate
09:15PM 42.7303 -98.2767 49° Northeast 503 579 35,000  Level Minneapolis Center
09:21PM 43.2220 -97.4870 49° Northeast 495 570 35,000  Level FlightAware
09:22PM 43.2830 -97.3860 50° Northeast 495 570 35,000  Level FlightAware
09:22PM 43.3430 -97.2890 50° Northeast 494 568 35,000  Level FlightAware
09:23PM 43.4070 -97.1830 50° Northeast 494 568 35,000  Level FlightAware
09:24PM 43.4660 -97.0860 50° Northeast 494 568 35,000  Level FlightAware
09:24PM 43.5330 -96.9740 50° Northeast 494 568 35,000  Level FlightAware
09:25PM 43.5920 -96.8780 50° Northeast 492 566 35,000  Level FlightAware
09:26PM 43.6570 -96.7730 49° Northeast 492 566 35,000  Level FlightAware
09:26PM 43.7180 -96.6830 47° Northeast 492 566 35,000  Level FlightAware
09:27PM 43.7830 -96.5900 46° Northeast 491 565 35,000  Level FlightAware
09:28PM 43.8520 -96.4890 47° Northeast 490 564 35,000  Level FlightAware
09:29PM 43.9130 -96.4020 46° Northeast 489 563 35,000  Level FlightAware
09:29PM 43.9770 -96.3080 47° Northeast 488 562 35,000  Level FlightAware
09:30PM 44.0470 -96.2070 46° Northeast 488 562 35,000  Level FlightAware
09:31PM 44.1110 -96.1140 46° Northeast 487 560 35,000  Level FlightAware
09:31PM 44.1780 -96.0140 47° Northeast 485 558 35,000  Level FlightAware
09:32PM 44.2400 -95.9230 46° Northeast 484 557 35,000  Level FlightAware
09:33PM 44.3110 -95.8190 46° Northeast 485 558 35,000  Level FlightAware
09:33PM 44.3730 -95.7270 47° Northeast 485 558 35,000  Level FlightAware
09:34PM 44.4350 -95.6350 47° Northeast 485 558 35,000  Level FlightAware
09:35PM 44.4970 -95.5430 47° Northeast 483 556 35,000  Level FlightAware
09:36PM 44.5630 -95.4440 47° Northeast 481 554 35,000  Level FlightAware
09:36PM 44.6230 -95.3530 47° Northeast 482 555 35,000  Level FlightAware
09:37PM 44.6930 -95.2460 47° Northeast 484 557 35,000  Level FlightAware
09:38PM 44.7540 -95.1540 47° Northeast 484 557 35,000  Level FlightAware
09:38PM 44.8220 -95.0520 47° Northeast 483 556 35,000  Level FlightAware
09:39PM 44.8830 -94.9570 48° Northeast 481 554 35,000  Level FlightAware
09:40PM 44.9320 -94.8620 54° Northeast 474 545 35,000  Level FlightAware
09:40PM 44.9790 -94.7390 62° Northeast 471 542 35,000  Level FlightAware
09:41PM 45.0190 -94.6290 63° Northeast 470 541 35,000  Level FlightAware
09:42PM 45.0650 -94.5040 62° Northeast 470 541 35,000  Level FlightAware
09:43PM 45.1050 -94.3940 63° Northeast 471 542 35,000  Level FlightAware
09:43PM 45.1430 -94.2890 63° Northeast 472 543 35,000  Level FlightAware
09:44PM 45.1880 -94.1650 63° Northeast 473 544 35,000  Level FlightAware
09:45PM 45.2270 -94.0530 64° Northeast 472 543 35,000  Level FlightAware
09:45PM 45.2730 -93.9260 63° Northeast 471 542 35,000  Level FlightAware
09:46PM 45.3120 -93.8140 64° Northeast 472 543 35,000  Level FlightAware
09:47PM 45.3510 -93.7060 63° Northeast 472 543 35,000  Level FlightAware
09:47PM 45.3940 -93.5830 63° Northeast 474 545 35,000  Level FlightAware
09:48PM 45.4340 -93.4700 63° Northeast 473 544 35,000  Level FlightAware
09:49PM 45.4720 -93.3610 64° Northeast 474 545 35,000  Level FlightAware
09:50PM 45.5170 -93.2320 63° Northeast 474 545 35,000  Level FlightAware
09:50PM 45.5550 -93.1200 64° Northeast 475 547 35,000  Level FlightAware
09:51PM 45.5980 -92.9950 64° Northeast 476 548 35,000  Level FlightAware
09:52PM 45.6370 -92.8820 64° Northeast 477 549 35,000  Level FlightAware
09:52PM 45.6760 -92.7700 63° Northeast 477 549 35,000  Level FlightAware
09:53PM 45.7200 -92.6400 64° Northeast 477 549 35,000  Level FlightAware
09:54PM 45.7580 -92.5270 64° Northeast 477 549 35,000  Level FlightAware
09:54PM 45.8010 -92.4010 64° Northeast 478 550 35,000  Level FlightAware
09:55PM 45.8390 -92.2870 64° Northeast 478 550 35,000  Level FlightAware
09:56PM 45.8820 -92.1560 65° Northeast 479 551 35,000  Level FlightAware
09:57PM 45.9200 -92.0430 64° Northeast 480 552 35,000  Level FlightAware
09:57PM 45.9630 -91.9140 64° Northeast 480 552 35,000  Level FlightAware
09:58PM 45.9990 -91.8030 65° Northeast 481 554 35,000  Level FlightAware
09:59PM 46.0380 -91.6850 65° Northeast 480 552 35,000  Level FlightAware
09:59PM 46.0820 -91.5500 65° Northeast 481 554 35,000  Level FlightAware
10:00PM 46.1190 -91.4350 65° Northeast 481 554 35,000  Level FlightAware
10:01PM 46.1610 -91.3060 65° Northeast 483 556 35,000  Level FlightAware
10:01PM 46.1980 -91.1900 65° Northeast 483 556 35,000  Level FlightAware
10:02PM 46.2360 -91.0730 65° Northeast 484 557 35,000  Level FlightAware
10:03PM 46.2780 -90.9400 65° Northeast 485 558 35,000  Level FlightAware
10:04PM 46.3150 -90.8220 66° East 485 558 35,000  Level FlightAware
10:04PM 46.3530 -90.7020 65° Northeast 486 559 35,000  Level FlightAware
10:05PM 46.3930 -90.5730 66° East 486 559 35,000  Level FlightAware
10:06PM 46.4300 -90.4560 65° Northeast 487 560 35,000  Level FlightAware
10:06PM 46.4740 -90.3160 65° Northeast 487 560 35,000  Level FlightAware
10:07PM 46.5090 -90.2010 66° East 488 562 35,000  Level FlightAware
10:08PM 46.5550 -90.0890 59° Northeast 489 563 35,000  Level FlightAware
10:08PM 46.6200 -89.9750 50° Northeast 490 564 35,000  Level FlightAware
10:09PM 46.6770 -89.8750 50° Northeast 491 565 35,000  Level FlightAware
10:10PM 46.7430 -89.7620 50° Northeast 491 565 35,000  Level FlightAware
10:11PM 46.8020 -89.6590 50° Northeast 492 566 35,000  Level FlightAware
10:11PM 46.8670 -89.5450 50° Northeast 491 565 35,000  Level FlightAware
10:12PM 46.9080 -89.4720 51° Northeast 492 566 35,000  Level FlightAware
10:13PM 46.9680 -89.3680 50° Northeast 492 566 35,000  Level FlightAware
10:13PM 47.0300 -89.2590 50° Northeast 492 566 35,000  Level FlightAware
10:14PM 47.0800 -89.1720 50° Northeast 492 566 35,000  Level FlightAware
10:15PM 47.1690 -89.0100 51° Northeast 493 567 35,000  Level FlightAware
10:15PM 47.2230 -88.9140 50° Northeast 493 567 35,000  Level FlightAware
10:16PM 47.2730 -88.8260 50° Northeast 493 567 35,000  Level FlightAware
10:17PM 47.3230 -88.7390 50° Northeast 493 567 35,000  Level FlightAware
10:17PM 47.3730 -88.6510 50° Northeast 493 567 35,000  Level FlightAware
10:18PM 47.4350 -88.5410 50° Northeast 493 567 35,000  Level FlightAware
10:19PM 47.5280 -88.3590 53° Northeast 488 562 35,000  Level FlightAware
10:20PM 47.5850 -88.2540 51° Northeast 486 559 35,000  Level FlightAware
10:21PM 47.6640 -88.1100 51° Northeast 485 558 35,000  Level FlightAware
10:21PM 47.7250 -87.9960 51° Northeast 474 545 35,000  Level FlightAware
10:22PM 47.7750 -87.9030 51° Northeast 473 544 35,000  Level FlightAware
10:23PM 47.8220 -87.8170 51° Northeast 473 544 35,000  Level FlightAware
10:23PM 47.8690 -87.7310 51° Northeast 473 544 35,000  Level FlightAware
10:24PM 47.9270 -87.6230 51° Northeast 473 544 35,000  Level FlightAware
10:25PM 47.9740 -87.5370 51° Northeast 473 544 35,000  Level FlightAware
10:25PM 48.0210 -87.4500 51° Northeast 473 544 35,000  Level FlightAware
10:26PM 48.0680 -87.3640 51° Northeast 473 544 35,000  Level FlightAware
10:27PM 48.1150 -87.2770 51° Northeast 473 544 35,000  Level FlightAware
10:28PM 48.1730 -87.1690 51° Northeast 473 544 35,000  Level FlightAware
10:28PM 48.2200 -87.0820 51° Northeast 473 544 35,000  Level FlightAware
10:29PM 48.2670 -86.9950 51° Northeast 473 544 35,000  Level FlightAware
10:30PM 48.3140 -86.9080 51° Northeast 473 544 35,000  Level FlightAware
10:30PM 48.3600 -86.8210 51° Northeast 473 544 35,000  Level FlightAware
10:31PM 48.4190 -86.7130 51° Northeast 473 544 35,000  Level FlightAware
10:32PM 48.5667 -86.2833 51° Northeast 470 541 35,000  Level Winnipeg Center
10:33PM 48.6500 -86.1333 50° Northeast 470 541 35,000  Level Winnipeg Center
10:34PM 48.7333 -85.9667 53° Northeast 470 541 35,000  Level Winnipeg Center
10:35PM 48.8167 -85.8167 50° Northeast 470 541 35,000  Level Winnipeg Center
10:36PM 48.8833 -85.6500 59° Northeast 470 541 35,000  Level Winnipeg Center
10:37PM 48.9667 -85.4667 55° Northeast 480 552 35,000  Level Winnipeg Center
10:38PM 49.0333 -85.3333 53° Northeast 480 552 35,000  Level Winnipeg Center
10:39PM 49.1167 -85.1500 55° Northeast 480 552 35,000  Level Winnipeg Center
10:40PM 49.2000 -85.0000 50° Northeast 480 552 35,000  Level Winnipeg Center
10:41PM 49.2833 -84.8333 52° Northeast 480 552 35,000  Level Winnipeg Center
10:42PM 49.3500 -84.6833 56° Northeast 490 564 35,000  Level Winnipeg Center
10:43PM 49.4333 -84.5000 55° Northeast 490 564 35,000 360 Level Winnipeg Center
10:44PM 49.5167 -84.3167 55° Northeast 490 564 35,800 900 Climbing Winnipeg Center
10:45PM 49.6000 -84.1667 49° Northeast 490 564 36,900 600 Climbing Winnipeg Center
10:46PM 49.6833 -84.0833 33° Northeast 480 552 37,000  Climbing Montreal Center
10:47PM 49.7667 -83.9167 52° Northeast 480 552 37,000  Level Montreal Center
10:48PM 49.8500 -83.7500 52° Northeast 490 564 37,000  Level Montreal Center
10:49PM 49.9167 -83.5833 58° Northeast 490 564 37,000  Level Montreal Center
10:50PM 50.0000 -83.4000 55° Northeast 490 564 37,000  Level Montreal Center
10:51PM 50.0833 -83.2333 52° Northeast 490 564 37,000  Level Montreal Center
10:52PM 50.1667 -83.0667 52° Northeast 490 564 37,000  Level Montreal Center
10:53PM 50.2333 -82.8833 60° Northeast 490 564 37,000  Level Montreal Center
10:54PM 50.3167 -82.6833 57° Northeast 490 564 37,000  Level Montreal Center
10:55PM 50.4000 -82.5167 52° Northeast 490 564 37,000  Level Montreal Center
10:56PM 50.4667 -82.3333 60° Northeast 500 575 37,000  Level Montreal Center
10:57PM 50.5500 -82.1667 52° Northeast 500 575 37,000  Level Montreal Center
10:58PM 50.6333 -81.9667 57° Northeast 500 575 37,000  Level Montreal Center
10:59PM 50.7000 -81.7833 60° Northeast 500 575 37,000  Level Montreal Center
11:00PM 50.7833 -81.6167 52° Northeast 500 575 37,000  Level Montreal Center
11:01PM 50.8667 -81.4167 57° Northeast 510 587 37,000  Level Montreal Center
11:02PM 50.9333 -81.2333 60° Northeast 510 587 37,000  Level Montreal Center
11:03PM 51.0167 -81.0500 54° Northeast 510 587 37,000  Level Montreal Center
11:04PM 51.1000 -80.8667 54° Northeast 510 587 37,000  Level Montreal Center
11:05PM 51.1833 -80.6667 56° Northeast 510 587 37,000  Level Montreal Center
11:06PM 51.2500 -80.4833 60° Northeast 510 587 37,000  Level Montreal Center
11:07PM 51.3500 -80.2833 51° Northeast 510 587 37,000  Level Montreal Center
11:08PM 51.4167 -80.1000 60° Northeast 510 587 37,000  Level Montreal Center
11:09PM 51.4833 -79.8833 64° Northeast 510 587 37,000  Level Montreal Center
11:10PM 51.5667 -79.7000 54° Northeast 510 587 37,000  Level Montreal Center
11:12PM 51.7167 -79.3000 59° Northeast 510 587 37,000  Level Montreal Center
11:13PM 51.7833 -79.1167 59° Northeast 510 587 37,000  Level Montreal Center
11:14PM 51.8667 -78.9167 56° Northeast 510 587 37,000  Level Montreal Center
11:15PM 51.9500 -78.7167 56° Northeast 510 587 37,000  Level Montreal Center
11:16PM 52.0167 -78.5167 61° Northeast 510 587 37,000  Level Montreal Center
11:17PM 52.0833 -78.3167 61° Northeast 510 587 37,000  Level Montreal Center
11:18PM 52.1667 -78.1333 53° Northeast 510 587 37,000  Level Montreal Center
11:19PM 52.2333 -77.9167 63° Northeast 520 598 37,000  Level Montreal Center
11:20PM 52.3167 -77.7000 58° Northeast 520 598 37,000  Level Montreal Center
11:21PM 52.3833 -77.4833 63° Northeast 520 598 37,000  Level Montreal Center
11:22PM 52.4667 -77.2833 56° Northeast 520 598 37,000  Level Montreal Center
11:23PM 52.5500 -77.0667 58° Northeast 530 610 37,000  Level Montreal Center
11:24PM 52.6167 -76.8833 59° Northeast 530 610 37,000  Level Montreal Center
11:25PM 52.6833 -76.6500 65° Northeast 520 598 37,000  Level Montreal Center
11:26PM 52.7667 -76.4667 53° Northeast 520 598 37,000  Level Montreal Center
11:27PM 52.8333 -76.2500 63° Northeast 530 610 37,000  Level Montreal Center
11:28PM 52.9000 -76.0167 65° Northeast 520 598 37,000  Level Montreal Center
11:29PM 52.9667 -75.8167 61° Northeast 530 610 37,000  Level Montreal Center
11:30PM 53.0500 -75.6000 57° Northeast 530 610 37,000  Level Montreal Center
11:31PM 53.1167 -75.3667 64° Northeast 530 610 37,000  Level Montreal Center
11:32PM 53.2000 -75.1500 57° Northeast 530 610 37,000  Level Montreal Center
11:33PM 53.2667 -74.9500 61° Northeast 530 610 37,000  Level Montreal Center
11:34PM 53.3333 -74.7500 61° Northeast 520 598 37,000  Level Montreal Center
11:35PM 53.4000 -74.5167 64° Northeast 530 610 37,000  Level Montreal Center
11:36PM 53.4833 -74.3000 57° Northeast 530 610 37,000  Level Montreal Center
11:37PM 53.5500 -74.1000 61° Northeast 530 610 37,000  Level Montreal Center
11:38PM 53.6000 -73.8667 70° East 530 610 37,000  Level Montreal Center
11:39PM 53.6833 -73.6333 59° Northeast 530 610 37,000  Level Montreal Center
11:40PM 53.7500 -73.4000 64° Northeast 530 610 37,000  Level Montreal Center
11:41PM 53.8333 -73.1667 59° Northeast 530 610 37,000  Level Montreal Center
11:42PM 53.8833 -72.9667 67° East 530 610 37,000  Level Montreal Center
11:43PM 53.9500 -72.7333 64° Northeast 540 621 37,000  Level Montreal Center
11:44PM 54.0333 -72.5000 59° Northeast 540 621 37,000  Level Montreal Center
11:45PM 54.0833 -72.2667 70° East 540 621 37,000  Level Montreal Center
11:46PM 54.1500 -72.0167 65° Northeast 540 621 37,000  Level Montreal Center
11:47PM 54.2333 -71.8167 54° Northeast 540 621 37,000  Level Montreal Center
11:48PM 54.2833 -71.5833 70° East 540 621 37,000  Level Montreal Center
11:49PM 54.3500 -71.3333 65° Northeast 540 621 37,000  Level Montreal Center
11:50PM 54.4167 -71.1000 64° Northeast 540 621 37,000  Level Montreal Center
11:51PM 54.4833 -70.8667 64° Northeast 540 621 37,000  Level Montreal Center
11:52PM 54.5500 -70.6167 65° Northeast 540 621 37,000  Level Montreal Center
11:53PM 54.6167 -70.3833 64° Northeast 540 621 37,000  Level Montreal Center
11:54PM 54.6833 -70.1667 62° Northeast 540 621 37,000  Level Montreal Center
11:55PM 54.7333 -69.9167 71° East 540 621 37,000  Level Montreal Center
11:56PM 54.8000 -69.6833 64° Northeast 540 621 37,000  Level Montreal Center
11:57PM 54.8667 -69.4333 65° Northeast 540 621 37,000  Level Montreal Center
11:58PM 54.9167 -69.1833 71° East 530 610 37,000  Level Montreal Center
11:59PM 54.9833 -68.9333 65° Northeast 540 621 37,000  Level Montreal Center
12:00AM 55.0500 -68.7000 63° Northeast 550 633 37,000  Level Montreal Center
12:01AM 55.1167 -68.4500 65° Northeast 550 633 37,000  Level Montreal Center
12:02AM 55.1667 -68.2000 71° East 540 621 37,000  Level Montreal Center
12:03AM 55.2333 -67.9500 65° Northeast 550 633 37,000  Level Montreal Center
12:04AM 55.2833 -67.7333 68° East 550 633 37,000  Level Montreal Center
12:05AM 55.3333 -67.4833 71° East 540 621 37,000  Level Montreal Center
12:06AM 55.4000 -67.2333 65° Northeast 550 633 37,000  Level Montreal Center
12:07AM 55.4500 -66.9833 70° East 550 633 37,000  Level Montreal Center
12:08AM 55.5000 -66.7333 70° East 530 610 37,000  Level Montreal Center
12:09AM 55.5833 -66.4667 61° Northeast 560 644 37,000  Level Montreal Center
12:10AM 55.6500 -66.2167 65° Northeast 540 621 37,000  Level Montreal Center
12:11AM 55.7000 -65.9833 69° East 550 633 37,000  Level Montreal Center
12:12AM 55.7667 -65.7333 65° Northeast 550 633 37,000  Level Montreal Center
12:13AM 55.8333 -65.4833 65° Northeast 540 621 37,000  Level Montreal Center
12:14AM 55.8833 -65.2500 69° East 540 621 37,000  Level Montreal Center
12:15AM 55.9500 -64.9833 66° East 530 610 37,000  Level Montreal Center
12:16AM 56.0000 -64.7667 67° East 540 621 37,000  Level Montreal Center
12:17AM 56.0667 -64.5000 66° East 530 610 37,000  Level Montreal Center
12:18AM 56.1333 -64.2667 63° Northeast 530 610 37,000  Level Montreal Center
12:19AM 56.1667 -64.0333 76° East 510 587 37,000  Level Montreal Center
12:20AM 56.2333 -63.7833 64° Northeast 510 587 37,000  Level Montreal Center
12:20AM 56.2667 -63.7500 29° Northeast 520 598 37,000  Level Gander Center
12:21AM 56.2833 -63.6000 79° East 520 598 37,000  Level Gander Center
12:22AM 56.3333 -63.3833 67° East 520 598 37,000  Level Gander Center
12:23AM 56.3833 -63.1500 69° East 510 587 37,000  Level Gander Center
12:23AM 56.4167 -63.0333 63° Northeast 500 575 37,000  Level Gander Center
12:24AM 56.4833 -62.8000 63° Northeast 510 587 37,000  Level Gander Center
12:25AM 56.5000 -62.6667 77° East 510 587 37,000  Level Gander Center
12:26AM 56.5500 -62.4333 69° East 510 587 37,000  Level Gander Center
12:26AM 56.5833 -62.3167 63° Northeast 510 587 37,000  Level Gander Center
12:27AM 56.6000 -62.1833 77° East 510 587 37,000  Level Gander Center
12:28AM 56.6500 -61.9500 69° East 500 575 37,000  Level Gander Center
12:29AM 56.7000 -61.7000 70° East 510 587 37,000  Level Gander Center
12:30AM 56.7500 -61.4333 71° East 510 587 37,000  Level Gander Center
12:31AM 56.8000 -61.2167 67° East 530 610 37,000  Level Gander Center
12:32AM 56.8500 -60.9833 69° East 510 587 37,000  Level Gander Center
12:33AM 56.9000 -60.7333 70° East 510 587 37,000  Level Gander Center
12:33AM 56.9333 -60.6167 62° Northeast 510 587 37,000  Level Gander Center
12:34AM 56.9500 -60.4833 77° East 510 587 37,000  Level Gander Center
12:35AM 57.0000 -60.2667 67° East 500 575 37,000  Level Gander Center
12:36AM 57.0500 -60.0000 71° East 500 575 37,000  Level Gander Center
12:37AM 57.1000 -59.7833 67° East 520 598 37,000  Level Gander Center
12:39AM 57.1833 -59.1667 76° East 540 621 37,000  Level Montreal Center
12:39AM 57.1833 -59.1500 90° East 520 598 37,000  Level Gander Center
12:40AM 57.2000 -58.9667 80° East 530 610 37,000  Level Gander Center
12:41AM 57.2333 -58.7167 76° East 540 621 37,000  Level Gander Center
12:42AM 57.2667 -58.4500 77° East 540 621 37,000  Level Gander Center
12:43AM 57.3000 -58.1667 78° East 560 644 37,000  Level Gander Center
12:43AM 57.3167 -58.0333 77° East 550 633 37,000  Level Gander Center
12:44AM 57.3333 -57.8833 78° East 540 621 37,000  Level Gander Center
12:44AM 57.3333 -57.7833 90° East 540 621 37,000  Level Gander Center
12:45AM 57.3500 -57.6000 80° East 540 621 37,000  Level Gander Center
12:45AM 57.3667 -57.5000 73° East 540 621 37,000  Level Gander Center
12:46AM 57.4000 -57.3500 68° East 540 621 37,000  Level Gander Center
12:47AM 57.4167 -57.0667 84° East 540 621 37,000  Level Gander Center
12:48AM 57.4667 -56.7833 72° East 540 621 37,000  Level Gander Center
12:49AM 57.4833 -56.5333 83° East 540 621 37,000  Level Gander Center
12:50AM 57.5167 -56.2167 79° East 540 621 37,000  Level Gander Center
12:51AM 57.5500 -55.9333 78° East 540 621 37,000  Level Gander Center
12:52AM 57.5667 -55.6833 83° East 540 621 37,000  Level Gander Center
12:53AM 57.6000 -55.4000 78° East 530 610 37,000  Level Gander Center
12:54AM 57.6333 -55.1333 77° East 530 610 37,000  Level Gander Center
12:55AM 57.6500 -54.8500 84° East 530 610 37,000  Level Gander Center
12:56AM 57.6667 -54.5667 84° East 540 621 37,000  Level Gander Center
12:57AM 57.7000 -54.3167 76° East 540 621 37,000  Level Gander Center
12:58AM 57.7167 -54.0333 84° East 530 610 37,000  Level Gander Center
12:59AM 57.7333 -53.7500 84° East 530 610 37,000  Level Gander Center
12:59AM 57.7500 -53.6500 73° East 530 610 37,000  Level Gander Center
01:02AM 57.7928 -53.1235 81° East  Level FlightAware Approximate
01:04AM 57.8500 -52.2667 83° East 530 610 37,000  Level Gander Center
01:05AM 57.8667 -51.9833 84° East 530 610 37,000  Level Gander Center
01:06AM 57.8833 -51.7333 83° East 530 610 37,000  Level Gander Center
01:07AM 57.9000 -51.4333 84° East 530 610 37,000  Level Gander Center
01:08AM 57.9167 -51.1833 83° East 530 610 37,000  Level Gander Center
01:09AM 57.9204 -51.3458 82° East  Level FlightAware Approximate
01:09AM 57.9333 -50.9000 84° East 530 610 37,000  Level Gander Center
01:10AM 57.9366 -51.0909 83° East  Level FlightAware Approximate
01:10AM 57.9333 -50.6333 90° East 530 610 37,000  Level Gander Center
01:11AM 57.9667 -50.3500 77° East 530 610 37,000  Level Gander Center
01:12AM 57.9833 -50.0833 83° East 530 610 37,000  Level Gander Center
01:13AM 57.9833 -49.8000 90° East 520 598 37,000  Level Gander Center
01:14AM 58.0000 -49.5333 83° East 520 598 37,000  Level Gander Center
01:15AM 58.0167 -49.2833 83° East 520 598 37,000  Level Gander Center
01:16AM 58.0167 -49.0000 90° East 520 598 37,000  Level Gander Center
01:17AM 58.0333 -48.7333 83° East 520 598 37,000  Level Gander Center
01:18AM 58.0333 -48.4500 90° East 520 598 37,000  Level Gander Center
01:19AM 58.0333 -48.1833 90° East 520 598 37,000  Level Gander Center
01:20AM 58.0500 -47.9000 84° East 520 598 37,000  Level Gander Center
01:21AM 58.0500 -47.6500 90° East 520 598 37,000  Level Gander Center
01:22AM 58.0500 -47.3500 90° East 520 598 37,000  Level Gander Center
01:23AM 58.0667 -47.1000 83° East 520 598 37,000  Level Gander Center
01:24AM 58.0667 -46.8000 90° East 520 598 37,000  Level Gander Center
01:25AM 58.0667 -46.5500 90° East 520 598 37,000  Level Gander Center
01:26AM 58.0667 -46.2667 90° East 520 598 37,000  Level Gander Center
01:27AM 58.0667 -46.0000 90° East 520 598 37,000  Level Gander Center
01:28AM 58.0667 -45.7167 90° East 520 598 37,000  Level Gander Center
01:29AM 58.0667 -45.4500 90° East 520 598 37,000  Level Gander Center
01:30AM 58.0833 -45.2000 83° East 520 598 37,000  Level Gander Center
01:31AM 58.0667 -44.9000 96° East 520 598 37,000  Level Gander Center
01:32AM 58.0833 -44.6500 83° East 520 598 37,000  Level Gander Center
01:33AM 58.0667 -44.3667 96° East 520 598 37,000  Level Gander Center
01:34AM 58.0667 -44.1000 90° East 520 598 37,000  Level Gander Center
01:35AM 58.0667 -43.8167 90° East 520 598 37,000  Level Gander Center
01:36AM 58.0667 -43.5500 90° East 520 598 37,000  Level Gander Center
01:37AM 58.0667 -43.2667 90° East 520 598 37,000  Level Gander Center
01:38AM 58.0667 -43.0167 90° East 520 598 37,000  Level Gander Center
01:39AM 58.0500 -42.7167 96° East 520 598 37,000  Level Gander Center
01:40AM 58.0500 -42.4667 90° East 520 598 37,000  Level Gander Center
01:41AM 58.0500 -42.2000 90° East 520 598 37,000  Level Gander Center
01:42AM 58.0333 -41.9167 96° East 520 598 37,000  Level Gander Center
01:43AM 58.0333 -41.6667 90° East 520 598 37,000  Level Gander Center
01:44AM 58.0167 -41.3833 96° East 520 598 37,000  Level Gander Center
01:45AM 58.0167 -41.1167 90° East 520 598 37,000  Level Gander Center
01:46AM 58.0000 -40.8333 96° East 520 598 37,000  Level Gander Center
01:47AM 58.0000 -40.5833 90° East 520 598 37,000  Level Gander Center
01:48AM 58.0000 -40.3167 90° East 510 587 37,000  Level Gander Center
01:49AM 57.9833 -40.0333 96° East 520 598 37,000  Level Gander Center
01:50AM 57.9667 -39.7500 96° East 520 598 37,000  Level Gander Center
01:51AM 57.9500 -39.5000 97° East 520 598 37,000  Level Gander Center
01:52AM 57.9333 -39.2500 97° East 520 598 37,000  Level Gander Center
01:53AM 57.9167 -38.9667 96° East 520 598 37,000  Level Gander Center
01:54AM 57.9000 -38.6833 96° East 520 598 37,000 120 Level Gander Center
01:55AM 57.8833 -38.4333 97° East 520 598 37,300 480 Climbing Gander Center
01:56AM 57.8667 -38.1833 97° East 520 598 38,000 300 Climbing Gander Center
01:57AM 57.8500 -37.9000 96° East 520 598 38,000  Level Gander Center
01:58AM 57.8167 -37.6500 104° East 520 598 38,000  Level Gander Center
01:59AM 57.8000 -37.3667 96° East 520 598 38,000  Level Gander Center
02:00AM 57.7833 -37.0833 96° East 520 598 38,000  Level Gander Center
02:01AM 57.7500 -36.8500 105° East 520 598 38,000  Level Gander Center
02:02AM 57.7333 -36.6000 97° East 520 598 38,000  Level Gander Center
02:03AM 57.7167 -36.3500 97° East 520 598 38,000  Level Gander Center
02:04AM 57.6833 -36.0833 103° East 520 598 38,000  Level Gander Center
02:06AM 57.6583 -35.7981 99° East  Level FlightAware Approximate
02:13AM 57.4898 -34.0459 99° East  Level FlightAware Approximate
02:14AM 57.4638 -33.7969 101° East  Level FlightAware Approximate
02:15AM 57.4372 -33.5483 101° East  Level FlightAware Approximate
02:16AM 57.4102 -33.3001 101° East  Level FlightAware Approximate
02:17AM 57.3827 -33.0522 102° East  Level FlightAware Approximate
02:18AM 57.3547 -32.8047 102° East  Level FlightAware Approximate
02:19AM 57.3262 -32.5576 102° East  Level FlightAware Approximate
02:20AM 57.2973 -32.3108 102° East  Level FlightAware Approximate
02:21AM 57.2678 -32.0645 102° East  Level FlightAware Approximate
02:22AM 57.2379 -31.8186 103° East  Level FlightAware Approximate
02:23AM 57.2075 -31.5730 103° East  Level FlightAware Approximate
02:24AM 57.1766 -31.3279 103° East  Level FlightAware Approximate
02:25AM 57.1452 -31.0832 103° East  Level FlightAware Approximate
02:26AM 57.1134 -30.8389 103° East  Level FlightAware Approximate
02:27AM 57.0811 -30.5950 104° East  Level FlightAware Approximate
02:28AM 57.0483 -30.3515 104° East  Level FlightAware Approximate
02:29AM 57.0150 -30.1085 104° East  Level FlightAware Approximate
02:30AM 56.9914 -29.8625 97° East  Level FlightAware Approximate
02:31AM 56.9753 -29.6140 97° East  Level FlightAware Approximate
02:32AM 56.9589 -29.3657 97° East  Level FlightAware Approximate
02:33AM 56.9419 -29.1176 97° East  Level FlightAware Approximate
02:34AM 56.9244 -28.8697 97° East  Level FlightAware Approximate
02:35AM 56.9064 -28.6221 97° East  Level FlightAware Approximate
02:36AM 56.8880 -28.3747 98° East  Level FlightAware Approximate
02:37AM 56.8690 -28.1276 98° East  Level FlightAware Approximate
02:38AM 56.8496 -27.8807 98° East  Level FlightAware Approximate
02:39AM 56.8297 -27.6341 98° East  Level FlightAware Approximate
02:40AM 56.8092 -27.3877 99° East  Level FlightAware Approximate
02:41AM 56.7883 -27.1416 99° East  Level FlightAware Approximate
02:42AM 56.7681 -26.8955 98° East  Level FlightAware Approximate
02:43AM 56.7477 -26.6495 98° East  Level FlightAware Approximate
02:44AM 56.7269 -26.4038 99° East  Level FlightAware Approximate
02:45AM 56.7055 -26.1584 99° East  Level FlightAware Approximate
02:46AM 56.6837 -25.9132 99° East  Level FlightAware Approximate
02:47AM 56.6614 -25.6684 99° East  Level FlightAware Approximate
02:48AM 56.6386 -25.4238 100° East  Level FlightAware Approximate
02:49AM 56.6154 -25.1796 100° East  Level FlightAware Approximate
02:50AM 56.5916 -24.9356 100° East  Level FlightAware Approximate
02:51AM 56.5674 -24.6920 100° East  Level FlightAware Approximate
02:52AM 56.5427 -24.4486 100° East  Level FlightAware Approximate
02:53AM 56.5175 -24.2056 101° East  Level FlightAware Approximate
02:54AM 56.4919 -23.9629 101° East  Level FlightAware Approximate
02:55AM 56.4658 -23.7206 101° East  Level FlightAware Approximate
02:56AM 56.4392 -23.4786 101° East  Level FlightAware Approximate
02:57AM 56.4121 -23.2369 101° East  Level FlightAware Approximate
02:58AM 56.3846 -22.9956 102° East  Level FlightAware Approximate
02:59AM 56.3566 -22.7546 102° East  Level FlightAware Approximate
03:00AM 56.3282 -22.5140 102° East  Level FlightAware Approximate
03:01AM 56.2992 -22.2737 102° East  Level FlightAware Approximate
03:02AM 56.2698 -22.0338 102° East  Level FlightAware Approximate
03:03AM 56.2400 -21.7943 103° East  Level FlightAware Approximate
03:04AM 56.2097 -21.5551 103° East  Level FlightAware Approximate
03:05AM 56.1789 -21.3164 103° East  Level FlightAware Approximate
03:06AM 56.1477 -21.0780 103° East  Level FlightAware Approximate
03:07AM 56.1160 -20.8400 103° East  Level FlightAware Approximate
03:08AM 56.0838 -20.6024 104° East  Level FlightAware Approximate
03:09AM 56.0512 -20.3652 104° East  Level FlightAware Approximate
03:10AM 56.0181 -20.1284 104° East  Level FlightAware Approximate
03:11AM 55.9879 -19.8907 101° East  Level FlightAware Approximate
03:12AM 55.9611 -19.6518 101° East  Level FlightAware Approximate
03:13AM 55.9338 -19.4132 101° East  Level FlightAware Approximate
03:14AM 55.9061 -19.1749 102° East  Level FlightAware Approximate
03:15AM 55.8779 -18.9370 102° East  Level FlightAware Approximate
03:16AM 55.8492 -18.6994 102° East  Level FlightAware Approximate
03:17AM 55.8201 -18.4622 102° East  Level FlightAware Approximate
03:18AM 55.7905 -18.2253 102° East  Level FlightAware Approximate
03:19AM 55.7605 -17.9888 103° East  Level FlightAware Approximate
03:20AM 55.7300 -17.7526 103° East  Level FlightAware Approximate
03:21AM 55.6991 -17.5169 103° East  Level FlightAware Approximate
03:22AM 55.6677 -17.2815 103° East  Level FlightAware Approximate
03:23AM 55.6364 -17.0463 103° East  Level FlightAware Approximate
03:24AM 55.6051 -16.8113 103° East  Level FlightAware Approximate
03:25AM 55.5734 -16.5766 103° East  Level FlightAware Approximate
03:26AM 55.5412 -16.3423 104° East  Level FlightAware Approximate
03:27AM 55.5086 -16.1084 104° East  Level FlightAware Approximate
03:28AM 55.4756 -15.8748 104° East  Level FlightAware Approximate
03:29AM 55.4421 -15.6417 104° East  Level FlightAware Approximate
03:30AM 55.4081 -15.4090 104° East  Level FlightAware Approximate
03:31AM 55.3737 -15.1766 105° East  Level FlightAware Approximate
03:32AM 55.3389 -14.9447 105° East  Level FlightAware Approximate
03:33AM 55.3037 -14.7132 105° East  Level FlightAware Approximate
03:34AM 55.2680 -14.4821 105° East  Level FlightAware Approximate
03:35AM 55.2318 -14.2514 105° East  Level FlightAware Approximate
03:36AM 55.1953 -14.0211 105° East  Level FlightAware Approximate
03:37AM 55.1583 -13.7913 106° East  Level FlightAware Approximate
03:37AM 54.8410 -13.8340 106° East 488 562 39,000  Level FlightAware
03:37AM 54.8180 -13.6490 102° East 487 560 39,000  Level FlightAware
03:38AM 54.7990 -13.4940 102° East 487 560 39,000  Level FlightAware
03:39AM 54.7790 -13.3430 103° East 487 560 39,000  Level FlightAware
03:39AM 54.7570 -13.1720 103° East 488 562 39,000  Level FlightAware
03:40AM 54.7370 -13.0170 103° East 487 560 39,000  Level FlightAware
03:41AM 54.7150 -12.8540 103° East 487 560 39,000  Level FlightAware
03:41AM 54.6940 -12.6980 103° East 487 560 39,000  Level FlightAware
03:42AM 54.6760 -12.5620 103° East 39,000  Level FlightAware
03:43AM 54.6500 -12.3760 104° East 490 564 39,000  Level FlightAware
03:44AM 54.6290 -12.2180 103° East 490 564 39,000  Level FlightAware
03:44AM 54.6080 -12.0680 104° East 491 565 39,000  Level FlightAware
03:45AM 54.5840 -11.8980 104° East 490 564 39,000  Level FlightAware
03:46AM 54.5620 -11.7440 104° East 491 565 39,000  Level FlightAware
03:46AM 54.5400 -11.5960 104° East 488 562 39,000  Level FlightAware
03:47AM 54.5160 -11.4270 104° East 488 562 39,000  Level FlightAware
03:48AM 54.4940 -11.2770 104° East 489 563 39,000  Level FlightAware
03:48AM 54.4690 -11.1080 104° East 489 563 39,000  Level FlightAware
03:49AM 54.4450 -10.9530 105° East 489 563 39,000  Level FlightAware
03:50AM 54.4200 -10.7860 104° East 489 563 39,000  Level FlightAware
03:50AM 54.4050 -10.6890 105° East 488 562 39,000  Level FlightAware
03:51AM 54.3800 -10.5220 104° East 488 562 39,000  Level FlightAware
03:51AM 54.3650 -10.4270 105° East 488 562 39,000  Level FlightAware
03:52AM 54.3450 -10.2990 105° East 490 564 39,000  Level FlightAware
03:53AM 54.3180 -10.1270 105° East 491 565 39,000  Level FlightAware
03:53AM 54.2950 -9.9800 105° East 490 564 39,000  Level FlightAware
03:54AM 54.2680 -9.8140 106° East 489 563 39,000  Level FlightAware
03:55AM 54.2430 -9.6630 106° East 488 562 39,000  Level FlightAware
03:56AM 54.2190 -9.5160 106° East 488 562 39,000  Level FlightAware
03:56AM 54.1910 -9.3470 106° East 489 563 39,000  Level FlightAware
03:57AM 54.1670 -9.1980 105° East 486 559 39,000 -960 Level FlightAware
03:58AM 54.1303 -8.9818 105° East 480 552 37,500 -1,200 Descending FlightAware UK
03:58AM 54.1192 -8.9155 106° East 480 552 37,500  Level FlightAware UK
03:59AM 54.1078 -8.8490 106° East 480 552 37,500  Level FlightAware UK
03:59AM 54.0964 -8.7824 106° East 478 550 37,500  Level FlightAware UK
03:59AM 54.0851 -8.7159 106° East 480 552 37,500  Level FlightAware UK
03:59AM 54.0738 -8.6494 106° East 482 555 37,500  Level FlightAware UK
04:00AM 54.0623 -8.5829 106° East 480 552 37,500  Level FlightAware UK
04:00AM 54.0507 -8.5163 107° East 482 555 37,500  Level FlightAware UK
04:00AM 54.0388 -8.4492 107° East 482 555 37,500  Level FlightAware UK
04:01AM 54.0270 -8.3825 107° East 482 555 37,500  Level FlightAware UK
04:01AM 54.0153 -8.3159 107° East 482 555 37,500  Level FlightAware UK
04:01AM 54.0038 -8.2494 106° East 482 555 37,500  Level FlightAware UK
04:02AM 53.9920 -8.1829 107° East 484 557 37,500 3,600 Level FlightAware UK
04:02AM 53.9910 -8.1820 107° East 490 564 39,000  Climbing FlightAware
04:02AM 53.9764 -8.0941 107° East 486 559 37,500 -2,580 Descending FlightAware UK
04:02AM 53.9645 -8.0277 107° East 484 557 37,500 2,700 Level FlightAware UK
04:02AM 53.9580 -7.9960 107° East 492 566 39,000  Climbing FlightAware
04:03AM 53.9525 -7.9613 107° East 484 557 37,500 -6,000 Descending FlightAware UK
04:03AM 53.9446 -7.9171 107° East 484 557 37,500  Level FlightAware UK
04:03AM 53.9326 -7.8509 107° East 484 557 37,500  Level FlightAware UK
04:03AM 53.9206 -7.7848 107° East 486 559 37,500  Level FlightAware UK
04:04AM 53.9086 -7.7187 107° East 484 557 37,500  Level FlightAware UK
04:04AM 53.8966 -7.6528 107° East 482 555 37,500  Level FlightAware UK
04:04AM 53.8847 -7.5871 107° East 482 555 37,500  Level FlightAware UK
04:05AM 53.8726 -7.5214 107° East 482 555 37,500  Level FlightAware UK
04:05AM 53.8604 -7.4557 107° East 482 555 37,500  Level FlightAware UK
04:05AM 53.8482 -7.3901 107° East 480 552 37,500  Level FlightAware UK
04:05AM 53.8361 -7.3245 107° East 482 555 37,500  Level FlightAware UK
04:06AM 53.8237 -7.2581 108° East 480 552 37,500  Level FlightAware UK
04:06AM 53.8115 -7.1925 107° East 482 555 37,500  Level FlightAware UK
04:06AM 53.7992 -7.1269 108° East 482 555 37,500  Level FlightAware UK
04:07AM 53.7870 -7.0612 107° East 482 555 37,500 4,680 Level FlightAware UK
04:07AM 53.7900 -7.0810 107° East 491 565 39,000  Climbing FlightAware
04:07AM 53.7747 -6.9956 107° East 482 555 37,500 -2,580 Descending FlightAware UK
04:07AM 53.7622 -6.9300 108° East 482 555 37,500  Level FlightAware UK
04:08AM 53.7496 -6.8644 108° East 482 555 37,500  Level FlightAware UK
04:08AM 53.7370 -6.7987 108° East 482 555 37,500  Level FlightAware UK
04:08AM 53.7245 -6.7330 108° East 480 552 37,500  Level FlightAware UK
04:08AM 53.7119 -6.6674 108° East 480 552 37,500  Level FlightAware UK
04:09AM 53.6993 -6.6019 108° East 482 555 37,500  Level FlightAware UK
04:09AM 53.6867 -6.5362 108° East 482 555 37,500  Level FlightAware UK
04:09AM 53.6741 -6.4706 108° East 482 555 37,500  Level FlightAware UK
04:10AM 53.6613 -6.4051 108° East 482 555 37,500  Level FlightAware UK
04:10AM 53.6484 -6.3396 108° East 484 557 37,500  Level FlightAware UK
04:10AM 53.6355 -6.2741 108° East 484 557 37,500 4,980 Level FlightAware UK
04:10AM 53.6390 -6.2960 108° East 490 564 39,000  Climbing FlightAware
04:11AM 53.6226 -6.2087 108° East 480 552 37,500 -2,520 Descending FlightAware UK
04:11AM 53.6096 -6.1435 109° East 482 555 37,500 3,300 Level FlightAware UK
04:11AM 53.6080 -6.1350 109° East 490 564 39,000  Climbing FlightAware
04:11AM 53.5923 -6.0564 109° East 482 555 37,500 -2,760 Descending FlightAware UK
04:12AM 53.5792 -5.9903 108° East 482 555 37,500 3,000 Level FlightAware UK
04:12AM 53.5730 -5.9590 108° East 493 567 39,000  Climbing FlightAware
04:12AM 53.5575 -5.8814 108° East 482 555 37,500 -2,520 Descending FlightAware UK
04:12AM 53.5445 -5.8161 108° East 484 557 37,500 4,080 Level FlightAware UK
04:12AM 53.5440 -5.8150 108° East 494 568 39,000  Climbing FlightAware
04:13AM 53.5268 -5.7292 108° East 482 555 37,500 -2,400 Descending FlightAware UK
04:13AM 53.5148 -5.6631 107° East 482 555 37,500 4,500 Level FlightAware UK
04:13AM 53.5160 -5.6700 107° East 496 571 39,000  Climbing FlightAware
04:13AM 53.5059 -5.5955 107° East 484 557 37,500 -2,700 Descending FlightAware UK
04:14AM 53.4994 -5.5270 99° East 486 559 37,500 3,060 Level FlightAware UK
04:14AM 53.4970 -5.4950 99° East 497 572 39,000  Climbing FlightAware
04:14AM 53.4937 -5.4121 99° East 486 559 37,500 -2,460 Descending FlightAware UK
04:14AM 53.4912 -5.3429 93° East 484 557 37,500 4,260 Level FlightAware UK
04:14AM 53.4910 -5.3420 93° East 497 572 39,000  Climbing FlightAware
04:15AM 53.4885 -5.2728 93° East 482 555 37,500 -2,760 Descending FlightAware UK
04:15AM 53.4857 -5.2036 94° East 482 555 37,500 3,000 Level FlightAware UK
04:15AM 53.4840 -5.1730 94° East 498 573 39,000  Climbing FlightAware
04:16AM 53.4808 -5.0884 94° East 484 557 37,500 -2,520 Descending FlightAware UK
04:16AM 53.4779 -5.0191 94° East 484 557 37,500 4,080 Level FlightAware UK
04:16AM 53.4780 -5.0200 94° East 499 574 39,000  Climbing FlightAware
04:16AM 53.4743 -4.9267 94° East 486 559 37,500  Descending FlightAware UK
04:17AM 53.4710 -4.8390 94° East 498 573 39,000 1,380 Climbing FlightAware
04:17AM 53.4650 -4.6950 94° East 498 573 39,000  Level FlightAware
04:18AM 53.4570 -4.5120 94° East 499 574 39,000 -1,500 Level FlightAware
04:18AM 53.4535 -4.4419 94° East 486 559 37,500  Descending FlightAware UK
04:19AM 53.4500 -4.3690 94° East 498 573 39,000  Climbing FlightAware
04:19AM 53.4453 -4.2573 94° East 486 559 37,500  Descending FlightAware UK
04:19AM 53.4430 -4.2140 94° East 497 572 39,000  Climbing FlightAware
04:20AM 53.4376 -4.0964 94° East 484 557 37,500  Descending FlightAware UK
04:20AM 53.4350 -4.0470 94° East 497 572 39,000  Climbing FlightAware
04:21AM 53.4288 -3.9121 94° East 484 557 37,500  Descending FlightAware UK
04:21AM 53.4271 -3.8779 94° East 498 573 39,000  Climbing FlightAware ADS-B
04:21AM 53.4219 -3.7744 94° East 484 557 37,500  Descending FlightAware UK
04:21AM 53.4196 -3.7318 94° East 498 573 39,000  Climbing FlightAware ADS-B
04:22AM 53.4126 -3.6606 94° East 484 557 37,500 -2,460 Descending FlightAware UK
04:22AM 53.3981 -3.5968 111° Southeast 482 555 37,500 3,060 Level FlightAware UK
04:22AM 53.3900 -3.5720 111° Southeast 490 564 39,000 4,680 Climbing FlightAware
04:22AM 53.3752 -3.5365 125° Southeast 491 565 39,000 -3,600 Level FlightAware ADS-B
04:23AM 53.3500 -3.4878 125° Southeast 484 557 37,500  Descending FlightAware UK
04:23AM 53.3188 -3.4268 125° Southeast 488 562 39,000  Climbing FlightAware ADS-B
04:23AM 53.2972 -3.3852 125° Southeast 486 559 37,500 -2,760 Descending FlightAware UK
04:24AM 53.2700 -3.3341 132° Southeast 486 559 37,500 3,720 Level FlightAware UK
04:24AM 53.2650 -3.3250 132° Southeast 487 560 39,000 9,960 Climbing FlightAware
04:24AM 53.2566 -3.3094 132° Southeast 487 560 39,000 -5,040 Level FlightAware ADS-B
04:24AM 53.2341 -3.2670 132° Southeast 484 557 37,500  Descending FlightAware UK
04:24AM 53.1945 -3.1931 132° Southeast 487 560 39,000  Climbing FlightAware ADS-B
04:25AM 53.1534 -3.1156 132° Southeast 484 557 37,500  Descending FlightAware UK
04:25AM 53.1435 -3.0976 132° Southeast 487 560 39,000 2,340 Climbing FlightAware ADS-B
04:25AM 53.0979 -3.0122 132° Southeast 487 560 39,000 -1,920 Level FlightAware ADS-B
04:26AM 53.0728 -2.9651 132° Southeast 488 562 37,500  Descending FlightAware UK
04:26AM 53.0524 -2.9270 132° Southeast 487 560 39,000  Climbing FlightAware ADS-B
04:26AM 53.0192 -2.8650 132° Southeast 484 557 37,500  Descending FlightAware UK
04:27AM 52.9960 -2.8234 132° Southeast 484 557 39,000  Climbing FlightAware ADS-B
04:27AM 52.9626 -2.7696 132° Southeast 486 559 37,500  Descending FlightAware UK
04:27AM 52.9460 -2.7470 132° Southeast 483 556 39,000 1,680 Climbing FlightAware
04:28AM 52.8760 -2.6570 142° Southeast 483 556 39,000 -1,920 Level FlightAware
04:28AM 52.8357 -2.6071 142° Southeast 474 545 37,100 -3,960 Descending FlightAware UK
04:28AM 52.8038 -2.5675 143° Southeast 472 543 36,500 3,000 Descending FlightAware UK
04:28AM 52.8060 -2.5700 143° Southeast 472 543 38,100 3,000 Climbing FlightAware
04:29AM 52.7770 -2.5343 143° Southeast 472 543 37,300 -5,700 Descending FlightAware ADS-B
04:29AM 52.7413 -2.4901 143° Southeast 472 543 34,900 -2,520 Descending FlightAware UK
04:29AM 52.7243 -2.4691 143° Southeast 473 544 36,000 -2,820 Climbing FlightAware ADS-B
04:30AM 52.6890 -2.4254 143° Southeast 476 548 33,500 -2,700 Descending FlightAware UK
04:30AM 52.6614 -2.3912 143° Southeast 474 545 34,400 600 Climbing FlightAware ADS-B
04:30AM 52.6069 -2.3238 143° Southeast 468 539 34,000 -1,020 Descending FlightAware ADS-B
04:31AM 52.5494 -2.2517 143° Southeast 463 533 33,300 -2,040 Descending FlightAware ADS-B
04:31AM 52.4942 -2.1817 142° Southeast 463 533 31,800 -3,900 Descending FlightAware ADS-B
04:32AM 52.4532 -2.1289 142° Southeast 456 525 29,600 -1,920 Descending FlightAware UK
04:32AM 52.4318 -2.1016 142° Southeast 449 517 30,600 -2,340 Climbing FlightAware ADS-B
04:32AM 52.3949 -2.0538 142° Southeast 448 516 28,200 -2,280 Descending FlightAware UK
04:33AM 52.3813 -2.0360 142° Southeast 443 510 29,400 120 Climbing FlightAware ADS-B
04:33AM 52.3311 -1.9699 141° Southeast 436 502 28,300 -4,020 Descending FlightAware ADS-B
04:33AM 52.3000 -1.9290 141° Southeast 436 502 26,000 -2,160 Descending FlightAware UK
04:34AM 52.2834 -1.9076 141° Southeast 429 494 27,200 1,200 Climbing FlightAware ADS-B
04:34AM 52.2540 -1.8713 143° Southeast 423 487 26,600 -4,200 Descending FlightAware ADS-B
04:34AM 52.2149 -1.8274 143° Southeast 426 490 24,200 -2,040 Descending FlightAware UK
04:34AM 52.2051 -1.8167 143° Southeast 417 480 25,600 -1,800 Climbing FlightAware ADS-B
04:35AM 52.1768 -1.7851 143° Southeast 420 483 23,500 -1,980 Descending FlightAware UK
04:35AM 52.1573 -1.7636 143° Southeast 410 472 24,600 -2,040 Climbing FlightAware ADS-B
04:35AM 52.1298 -1.7333 143° Southeast 416 479 22,500 -1,980 Descending FlightAware UK
04:35AM 52.1093 -1.7119 143° Southeast 401 461 23,600 -1,800 Climbing FlightAware ADS-B
04:36AM 52.0833 -1.6841 143° Southeast 410 472 21,600 -1,920 Descending FlightAware UK
04:36AM 52.0602 -1.6597 143° Southeast 394 453 22,600 120 Climbing FlightAware ADS-B
04:37AM 52.0131 -1.6092 147° Southeast 387 445 21,700 -1,920 Descending FlightAware ADS-B
04:37AM 51.9685 -1.5625 147° Southeast 381 438 20,700 -2,100 Descending FlightAware ADS-B
04:38AM 51.9232 -1.5142 147° Southeast 377 434 19,600 -2,100 Descending FlightAware ADS-B
04:38AM 51.8765 -1.4645 147° Southeast 375 432 18,500 -4,020 Descending FlightAware ADS-B
04:38AM 51.8526 -1.4390 147° Southeast 380 437 16,400 -4,620 Descending FlightAware UK
04:39AM 51.8274 -1.4127 147° Southeast 378 435 15,900 1,920 Descending FlightAware UK
04:39AM 51.8178 -1.4025 147° Southeast 367 422 17,200 -2,040 Climbing FlightAware ADS-B
04:39AM 51.7851 -1.3678 147° Southeast 372 428 14,900 -1,800 Descending FlightAware UK
04:39AM 51.7755 -1.3577 147° Southeast 361 415 16,300 -1,800 Climbing FlightAware ADS-B
04:40AM 51.7431 -1.3240 147° Southeast 366 421 14,000 -1,980 Descending FlightAware UK
04:40AM 51.7330 -1.3145 147° Southeast 356 410 15,300 -1,260 Climbing FlightAware ADS-B
04:40AM 51.7095 -1.2906 147° Southeast 364 419 13,500 -600 Descending FlightAware UK
04:40AM 51.6905 -1.2716 147° Southeast 358 412 15,000 1,980 Climbing FlightAware ADS-B
04:41AM 51.6481 -1.2288 148° Southeast 356 410 15,000  Level FlightAware ADS-B
04:41AM 51.6040 -1.1844 148° Southeast 357 411 15,000 -1,800 Level FlightAware ADS-B
04:42AM 51.5755 -1.1556 148° Southeast 364 419 13,500  Descending FlightAware UK
04:42AM 51.5617 -1.1416 148° Southeast 355 409 15,000 2,160 Climbing FlightAware ADS-B
04:42AM 51.5198 -1.0994 148° Southeast 355 409 15,000  Level FlightAware ADS-B
04:43AM 51.4778 -1.0570 148° Southeast 355 409 15,000  Level FlightAware ADS-B
04:43AM 51.4352 -1.0143 148° Southeast 355 409 15,000  Level FlightAware ADS-B
04:44AM 51.3928 -0.9717 148° Southeast 355 409 15,000  Level FlightAware ADS-B
04:44AM 51.3510 -0.9301 148° Southeast 355 409 15,000  Level FlightAware ADS-B
04:45AM 51.3088 -0.8878 148° Southeast 356 410 15,000  Level FlightAware ADS-B
04:45AM 51.2805 -0.8588 147° Southeast 356 410 15,000  Level FlightAware ADS-B
04:45AM 51.2683 -0.8438 142° Southeast 356 410 15,000  Level FlightAware ADS-B
04:46AM 51.2541 -0.8227 137° Southeast 356 410 15,000  Level FlightAware ADS-B
04:46AM 51.2476 -0.8116 133° Southeast 356 410 15,000  Level FlightAware ADS-B
04:46AM 51.2391 -0.7955 130° Southeast 356 410 15,000 -3,600 Level FlightAware ADS-B
04:46AM 51.2217 -0.7603 130° Southeast 364 419 13,500  Descending FlightAware UK
04:46AM 51.2079 -0.7326 130° Southeast 355 409 15,000 2,040 Climbing FlightAware ADS-B
04:47AM 51.1774 -0.6710 128° Southeast 355 409 15,000  Level FlightAware ADS-B
04:47AM 51.1449 -0.6060 129° Southeast 355 409 15,000 -1,980 Level FlightAware ADS-B
04:48AM 51.1299 -0.5758 129° Southeast 362 417 13,500 -1,200 Descending FlightAware UK
04:48AM 51.1139 -0.5441 129° Southeast 353 406 14,400 -180 Climbing FlightAware ADS-B
04:48AM 51.0819 -0.4806 129° Southeast 348 400 13,400 -3,540 Descending FlightAware ADS-B
04:49AM 51.0570 -0.4312 129° Southeast 352 405 11,100 -1,800 Descending FlightAware UK
04:49AM 51.0515 -0.4203 129° Southeast 344 396 12,500 -1,800 Climbing FlightAware ADS-B
04:49AM 51.0272 -0.3720 129° Southeast 350 403 10,200 -1,800 Descending FlightAware UK
04:49AM 51.0215 -0.3606 129° Southeast 336 387 11,600 -1,680 Climbing FlightAware ADS-B
04:50AM 50.9924 -0.3029 129° Southeast 342 394 9,200 -1,800 Descending FlightAware UK
04:50AM 50.9865 -0.2917 129° Southeast 331 381 10,500 1,440 Climbing FlightAware ADS-B
04:50AM 50.9578 -0.2351 129° Southeast 310 357 10,100 -2,460 Descending FlightAware ADS-B
04:51AM 50.9430 -0.2057 129° Southeast 304 350 8,600 -240 Descending FlightAware UK
04:51AM 50.9305 -0.1813 129° Southeast 285 328 10,000 -720 Climbing FlightAware ADS-B
04:51AM 50.9137 -0.1477 129° Southeast 288 331 8,200 -840 Descending FlightAware UK
04:52AM 50.9080 -0.1260 129° Southeast 279 321 9,500 600 Climbing FlightAware
04:52AM 50.9190 -0.0640 74° East 296 341 8,700 -1,680 Descending FlightAware
04:52AM 50.9290 -0.0510 39° Northeast 300 345 8,400 -1,680 Descending FlightAware
04:53AM 50.9500 -0.0400 18° North 309 356 8,000 -4,200 Descending FlightAware
04:53AM 50.9874 -0.0583 18° North 294 338 5,600 -1,800 Descending FlightAware UK
04:53AM 50.9890 -0.0610 18° North 312 359 7,100 5,580 Climbing FlightAware
04:53AM 50.9990 -0.0800 310° West 300 345 7,000 -300 Descending FlightAware
04:53AM 51.0030 -0.0990 289° West 289 333 7,000 -2,760 Level FlightAware
04:54AM 51.0094 -0.1508 289° West 256 295 5,500 -2,220 Descending FlightAware UK
04:54AM 51.0132 -0.1837 280° West 238 274 5,500 -480 Level FlightAware UK
04:54AM 51.0183 -0.2260 281° West 236 272 5,200 -900 Descending FlightAware UK
04:55AM 51.0219 -0.2574 280° West 240 276 4,900 2,880 Descending FlightAware UK
04:55AM 51.0220 -0.2590 280° West 246 283 6,400 -1,260 Climbing FlightAware
04:55AM 51.0265 -0.3004 280° West 240 276 4,400 -1,440 Descending FlightAware UK
04:55AM 51.0280 -0.3180 280° West 248 285 5,700 1,080 Climbing FlightAware
04:56AM 51.0330 -0.3610 280° West 236 272 5,100 -3,480 Descending FlightAware
04:56AM 51.0372 -0.4040 280° West 214 246 3,000 -1,200 Descending FlightAware UK
04:56AM 51.0380 -0.4090 280° West 220 253 4,500 3,120 Climbing FlightAware
04:57AM 51.0400 -0.4320 278° West 219 252 4,200 -1,080 Descending FlightAware
04:57AM 51.0460 -0.4750 283° West 216 249 3,800 -900 Descending FlightAware
04:57AM 51.0580 -0.4910 320° Northwest 205 236 3,600 -3,180 Descending FlightAware
04:58AM 51.0779 -0.5006 320° Northwest 188 216 1,900 -420 Descending FlightAware UK
04:58AM 51.0840 -0.5030 320° Northwest 199 229 3,400 -540 Climbing FlightAware
04:58AM 51.0993 -0.4994 320° Northwest 190 219 1,700 -240 Descending FlightAware UK
04:58AM 51.1040 -0.4930 320° Northwest 188 216 3,300 3,600 Climbing FlightAware
04:58AM 51.1090 -0.4720 69° East 182 209 3,200 -360 Descending FlightAware
04:59AM 51.1120 -0.4490 78° East 182 209 3,100 -540 Descending FlightAware
04:59AM 51.1150 -0.4270 78° East 185 213 2,900 -900 Descending FlightAware
04:59AM 51.1190 -0.4010 76° East 176 203 2,600 -3,540 Descending FlightAware
05:00AM 51.1218 -0.3791 76° East 168 193 800 -900 Descending FlightAware UK
05:00AM 51.1240 -0.3650 76° East 165 190 2,100 960 Climbing FlightAware
05:00AM 51.1290 -0.3260 78° East 160 184 1,600 -900 Descending FlightAware
05:01AM 51.1340 -0.2930 76° East 145 167 1,200 -840 Descending FlightAware
05:01AM 51.1360 -0.2780 78° East 145 167 1,000 -720 Descending FlightAware
05:02AM 51.1410 -0.2410 78° East 143 165 600 -720 Descending FlightAware
05:02AM 51.1450 -0.2120 78° East 141 162 200 -720 Descending FlightAware
05:05AM 51.1481 -0.1903 148° Southeast  Level Estimated